createdAt,value
2023-04-11T01:04:51.151Z,21.70
2023-04-11T01:07:21.053Z,25.10
2023-04-11T01:09:49.774Z,21.40
2023-04-11T01:12:18.198Z,26.90
2023-04-11T01:14:47.794Z,25.20
2023-04-11T01:17:16.104Z,25.40
2023-04-11T01:19:44.017Z,26.20
2023-04-11T01:22:14.834Z,32.30
2023-04-11T01:24:42.755Z,25.10
2023-04-11T01:27:10.635Z,28.90
2023-04-11T01:29:38.633Z,24.80
2023-04-11T01:32:06.478Z,27.10
2023-04-11T01:34:36.053Z,25.10
2023-04-11T01:37:03.908Z,28.50
2023-04-11T01:39:31.679Z,27.40
2023-04-11T01:42:02.832Z,21.50
2023-04-11T01:44:33.272Z,25.00
2023-04-11T01:47:04.638Z,24.70
2023-04-11T01:49:33.603Z,29.00
2023-04-11T01:52:01.491Z,26.50
2023-04-11T01:54:29.332Z,23.10
2023-04-11T01:56:57.606Z,30.40
2023-04-11T01:59:25.324Z,26.00
2023-04-11T02:01:53.446Z,28.30
2023-04-11T02:04:21.462Z,27.20
2023-04-11T02:06:49.345Z,27.70
2023-04-11T02:09:17.387Z,27.20
2023-04-11T02:11:45.173Z,30.70
2023-04-11T02:14:14.457Z,29.80
2023-04-11T02:16:52.322Z,25.70
2023-04-11T02:19:21.226Z,30.40
2023-04-11T02:21:49.320Z,31.80
2023-04-11T02:24:17.078Z,29.50
2023-04-11T02:26:44.718Z,31.50
2023-04-11T02:29:12.412Z,26.60
2023-04-11T02:31:40.436Z,28.30
2023-04-11T02:34:08.318Z,34.70
2023-04-11T02:36:36.509Z,34.20
2023-04-11T02:39:04.236Z,34.90
2023-04-11T02:41:31.921Z,28.30
2023-04-11T02:43:59.644Z,27.70
2023-04-11T02:46:27.477Z,28.80
2023-04-11T02:48:56.085Z,33.70
2023-04-11T02:51:24.809Z,28.20
2023-04-11T02:53:52.952Z,32.90
2023-04-11T02:56:21.496Z,31.60
2023-04-11T02:58:52.609Z,33.10
2023-04-11T03:01:24.838Z,31.10
2023-04-11T03:03:53.150Z,35.10
2023-04-11T03:06:23.240Z,32.20
2023-04-11T03:08:53.043Z,32.20
2023-04-11T03:11:20.936Z,30.50
2023-04-11T03:13:49.038Z,34.90
2023-04-11T03:16:16.790Z,32.60
2023-04-11T03:18:44.436Z,37.50
2023-04-11T03:21:12.672Z,32.00
2023-04-11T03:23:44.132Z,36.00
2023-04-11T03:26:14.591Z,33.10
2023-04-11T03:28:43.009Z,33.20
2023-04-11T03:31:12.152Z,32.90
2023-04-11T03:33:40.498Z,33.50
2023-04-11T03:36:08.608Z,33.10
2023-04-11T03:38:36.505Z,34.70
2023-04-11T03:41:04.463Z,33.70
2023-04-11T03:43:33.302Z,35.70
2023-04-11T03:46:01.356Z,31.30
2023-04-11T03:48:37.673Z,31.90
2023-04-11T03:51:08.592Z,37.20
2023-04-11T03:53:43.767Z,33.60
2023-04-11T03:56:37.770Z,34.40
2023-04-11T03:59:06.036Z,30.50
2023-04-11T04:01:43.099Z,36.80
2023-04-11T04:04:10.987Z,34.30
2023-04-11T04:06:40.186Z,34.00
2023-04-11T04:09:08.068Z,33.30
2023-04-11T04:11:46.335Z,36.90
2023-04-11T04:14:14.404Z,37.00
2023-04-11T04:16:42.320Z,33.40
2023-04-11T04:19:10.619Z,36.90
2023-04-11T04:21:38.796Z,34.90
2023-04-11T04:24:06.607Z,34.40
2023-04-11T04:26:53.258Z,35.70
2023-04-11T04:29:38.958Z,34.00
2023-04-11T04:32:11.352Z,29.80
2023-04-11T04:34:49.673Z,32.80
2023-04-11T04:37:25.542Z,33.80
2023-04-11T04:40:07.951Z,35.30
2023-04-11T04:42:43.128Z,33.20
2023-04-11T04:45:13.774Z,31.90
2023-04-11T04:47:41.796Z,29.70
2023-04-11T04:50:09.995Z,38.20
2023-04-11T04:52:37.916Z,42.10
2023-04-11T04:55:05.953Z,32.00
2023-04-11T04:57:33.711Z,37.60
2023-04-11T05:00:01.860Z,39.30
2023-04-11T05:02:30.720Z,34.30
2023-04-11T05:05:04.108Z,28.50
2023-04-11T05:07:32.078Z,31.60
2023-04-11T05:10:00.443Z,34.20
2023-04-11T05:12:28.920Z,29.70
2023-04-11T05:15:00.751Z,26.70
2023-04-11T05:17:31.126Z,28.20
2023-04-11T05:19:59.207Z,28.30
2023-04-11T05:22:28.088Z,35.20
2023-04-11T05:24:57.157Z,33.80
2023-04-11T05:27:24.892Z,32.70
2023-04-11T05:29:54.304Z,32.20
2023-04-11T05:32:22.167Z,40.10
2023-04-11T05:34:52.652Z,33.40
2023-04-11T05:37:26.106Z,27.20
2023-04-11T05:39:54.896Z,25.80
2023-04-11T05:42:22.640Z,24.50
2023-04-11T05:44:50.948Z,24.50
2023-04-11T05:47:18.664Z,22.10
2023-04-11T05:49:46.405Z,24.50
2023-04-11T05:52:14.088Z,21.50
2023-04-11T05:54:42.580Z,23.80
2023-04-11T05:57:10.632Z,20.20
2023-04-11T05:59:38.654Z,21.90
2023-04-11T06:02:08.736Z,21.50
2023-04-11T06:04:37.889Z,25.20
2023-04-11T06:07:05.800Z,23.60
2023-04-11T06:09:34.248Z,23.00
2023-04-11T06:12:03.774Z,20.80
2023-04-11T06:14:32.145Z,19.70
2023-04-11T06:16:59.892Z,20.30
2023-04-11T06:19:27.599Z,19.80
2023-04-11T06:21:55.269Z,22.30
2023-04-11T06:24:36.331Z,19.20
2023-04-11T06:27:06.518Z,19.80
2023-04-11T06:29:34.359Z,16.60
2023-04-11T06:32:02.092Z,18.60
2023-04-11T06:34:29.941Z,16.20
2023-04-11T06:36:57.658Z,21.70
2023-04-11T06:39:25.732Z,13.30
2023-04-11T06:41:53.427Z,12.90
2023-04-11T06:44:25.912Z,14.60
2023-04-11T06:46:54.602Z,13.00
2023-04-11T06:49:23.177Z,13.50
2023-04-11T06:51:50.993Z,15.00
2023-04-11T06:54:19.218Z,15.50
2023-04-11T06:56:47.526Z,13.50
2023-04-11T06:59:15.657Z,15.30
2023-04-11T07:01:43.395Z,11.20
2023-04-11T07:04:11.676Z,9.30
2023-04-11T07:06:39.751Z,13.10
2023-04-11T07:09:12.650Z,13.60
2023-04-11T07:11:40.913Z,10.30
2023-04-11T07:14:08.660Z,11.80
2023-04-11T07:16:36.447Z,13.00
2023-04-11T07:19:04.372Z,10.90
2023-04-11T07:21:32.295Z,10.90
2023-04-11T07:24:00.886Z,13.40
2023-04-11T07:26:32.575Z,10.80
2023-04-11T07:29:00.965Z,14.00
2023-04-11T07:31:28.884Z,12.00
2023-04-11T07:33:57.041Z,11.10
2023-04-11T07:36:26.773Z,11.30
2023-04-11T07:38:54.614Z,12.20
2023-04-11T07:41:23.652Z,12.10
2023-04-11T07:43:51.584Z,10.50
2023-04-11T07:46:19.382Z,9.20
2023-04-11T07:48:47.278Z,10.50
2023-04-11T07:51:15.023Z,8.80
2023-04-11T07:53:42.778Z,10.10
2023-04-11T07:56:10.819Z,10.00
2023-04-11T07:58:38.529Z,10.20
2023-04-11T08:01:19.029Z,11.80
2023-04-11T08:03:46.938Z,8.90
2023-04-11T08:06:14.941Z,12.20
2023-04-11T08:08:42.626Z,13.30
2023-04-11T08:11:10.405Z,11.40
2023-04-11T08:13:39.616Z,9.30
2023-04-11T08:16:09.788Z,7.40
